Brewer, Maine
Current Conditions -  °F | °C
As of 5:53 PM on Wednesday 26 Nov 2014 (Local Time) from KBGR Reporting Station
Moderate Snow Moderate Snow  
Wind Chill: 23°   Ceiling: 600
Heat Index: 32°   Visibility: 0.5mi
Dew Point: 31°   Wind: 13mph
Humidity: 96%   Direction: 30°NNE
Pressure: 30.06"   Gusts: NA
Location:  44.8°N, 68.76°W
Report Text: KBGR 262253Z 03011KT 1/2SM R15/4000V5000FT SN FG VV006 00/M01 A3006 RMK AO2 SLP181 P0007 T00001006
Loading
Personal Weather Stations






























Interactive Weather Map New forecast layout! Learn more

10-Day Weather Forecast

Advertisements
Track Severe Weather on mobile